Time;durP1;ratioP1;P1;durP2;ratioP2;P2;SDS_P1;SDS_P2;PMS_P1;PMS_P2;Temp;Humidity;BMP_temperature;BMP_pressure;BME280_temperature;BME280_humidity;BME280_pressure;Samples;Min_cycle;Max_cycle;Signal;HPM_P1;HPM_P2
2021/10/13 00:00:00;;;;;;;26.23;19.00;;;;;;;9.44;66.67;100086.70;1702684;83;21553;-73
2021/10/13 00:02:28;;;;;;;31.12;19.15;;;;;;;9.40;66.82;100078.43;1681887;83;20948;-73
2021/10/13 00:04:56;;;;;;;25.82;18.55;;;;;;;9.37;67.00;100085.08;1691332;83;21117;-74
2021/10/13 00:07:23;;;;;;;27.87;19.20;;;;;;;9.36;67.16;100078.69;1697401;83;21507;-73
2021/10/13 00:09:57;;;;;;;28.77;19.42;;;;;;;9.33;67.32;100071.20;1697464;83;21224;-73
2021/10/13 00:12:26;;;;;;;27.50;19.42;;;;;;;9.31;67.53;100056.83;1666442;84;21095;-73
2021/10/13 00:14:53;;;;;;;23.80;17.80;;;;;;;9.30;67.51;100051.20;1693252;83;21508;-74
2021/10/13 00:17:21;;;;;;;24.85;19.02;;;;;;;9.26;67.51;100048.00;1695616;83;21574;-73
2021/10/13 00:19:50;;;;;;;26.60;20.02;;;;;;;9.24;67.54;100051.44;1699259;83;21084;-73
2021/10/13 00:22:24;;;;;;;27.00;18.92;;;;;;;9.19;67.60;100049.57;1693494;83;21138;-74
2021/10/13 00:24:56;;;;;;;;;;;;;;;9.14;67.80;100050.33;1717807;82;21024;-74
2021/10/13 00:27:25;;;;;;;24.40;19.00;;;;;;;9.10;67.95;100055.91;1674715;83;20157;-74
2021/10/13 00:29:54;;;;;;;25.80;19.77;;;;;;;9.05;68.09;100062.56;1685387;83;21097;-73
2021/10/13 00:32:24;;;;;;;27.13;19.30;;;;;;;9.01;68.31;100048.14;1650859;84;21083;-73
2021/10/13 00:34:54;;;;;;;27.80;20.55;;;;;;;8.98;68.53;100047.86;1659163;84;21495;-73
2021/10/13 00:37:25;;;;;;;25.97;19.35;;;;;;;8.92;68.80;100056.37;1681488;83;21054;-73
2021/10/13 00:39:54;;;;;;;24.60;18.27;;;;;;;8.87;69.00;100065.64;1695735;83;21165;-73
2021/10/13 00:42:22;;;;;;;25.17;19.23;;;;;;;8.83;69.19;100065.89;1666483;83;21597;-73
2021/10/13 00:44:50;;;;;;;25.35;17.87;;;;;;;8.80;69.30;100066.41;1682250;83;20969;-73
2021/10/13 00:47:22;;;;;;;25.30;18.65;;;;;;;8.75;69.41;100073.02;1687498;83;21057;-73
2021/10/13 00:49:51;;;;;;;22.58;17.87;;;;;;;8.71;69.59;100092.70;1689552;82;21660;-73
2021/10/13 00:52:26;;;;;;;24.35;18.42;;;;;;;8.66;69.88;100102.80;1678125;83;20985;-73
2021/10/13 00:54:56;;;;;;;24.63;18.00;;;;;;;8.59;70.14;100098.22;1641077;85;21028;-73
2021/10/13 00:57:24;;;;;;;26.23;19.07;;;;;;;8.54;70.34;100090.19;1685759;84;21024;-73
2021/10/13 00:59:54;;;;;;;22.93;18.32;;;;;;;8.50;70.51;100095.75;1702357;82;21078;-74
2021/10/13 01:02:33;;;;;;;23.47;18.73;;;;;;;8.45;70.77;100101.02;1700471;83;21019;-73
2021/10/13 01:05:14;;;;;;;28.57;19.37;;;;;;;8.41;70.97;100097.27;1699755;82;21572;-73
2021/10/13 01:08:03;;;;;;;26.33;18.95;;;;;;;8.36;71.18;100098.54;1698051;82;20985;-73
2021/10/13 01:11:03;;;;;;;26.48;19.57;;;;;;;8.29;71.47;100089.44;1654039;84;21072;-74
2021/10/13 01:14:27;;;;;;;28.38;20.70;;;;;;;8.20;71.86;100091.74;1625225;86;21836;-73
2021/10/13 01:17:19;;;;;;;25.20;19.10;;;;;;;8.14;72.23;100085.30;1692471;83;21575;-73
2021/10/13 01:20:24;;;;;;;26.30;19.23;;;;;;;8.09;72.70;100081.25;1691450;83;21165;-72
2021/10/13 01:23:56;;;;;;;27.40;19.65;;;;;;;8.02;73.01;100074.80;1667367;83;21082;-73
2021/10/13 01:26:40;;;;;;;25.82;19.45;;;;;;;7.94;73.29;100081.38;1678210;83;21050;-73
2021/10/13 01:29:34;;;;;;;24.95;18.50;;;;;;;7.90;73.58;100078.16;1690098;83;21120;-73
2021/10/13 01:32:32;;;;;;;27.13;19.57;;;;;;;7.86;73.77;100063.73;1675555;84;21014;-73
2021/10/13 01:35:29;;;;;;;26.10;18.30;;;;;;;7.84;73.91;100066.66;1695855;83;21007;-73
2021/10/13 01:38:30;;;;;;;24.35;18.52;;;;;;;7.80;74.10;100062.08;1698921;83;21562;-73
2021/10/13 01:41:13;;;;;;;28.57;21.00;;;;;;;7.75;74.29;100064.17;1681534;83;21074;-73
2021/10/13 01:43:48;;;;;;;27.60;20.90;;;;;;;7.69;74.69;100061.97;1672634;84;21118;-73
2021/10/13 01:46:17;;;;;;;27.13;20.43;;;;;;;7.62;75.19;100061.37;1639466;85;21058;-72
2021/10/13 01:48:48;;;;;;;23.98;19.42;;;;;;;7.56;75.60;100058.91;1703970;83;21053;-73
2021/10/13 01:51:17;;;;;;;24.98;18.75;;;;;;;7.51;75.87;100057.80;1660000;83;21458;-72
2021/10/13 01:53:47;;;;;;;26.37;19.85;;;;;;;7.47;76.04;100059.89;1721122;83;20959;-72
2021/10/13 01:56:15;;;;;;;26.57;19.92;;;;;;;7.41;76.17;100062.20;1702759;82;21150;-72
2021/10/13 01:58:44;;;;;;;24.30;19.52;;;;;;;7.37;76.25;100065.05;1716819;83;21097;-72
2021/10/13 02:01:14;;;;;;;25.10;19.15;;;;;;;7.33;76.38;100089.19;1678619;85;21136;-73
2021/10/13 02:03:41;;;;;;;26.90;19.87;;;;;;;7.28;76.47;100088.09;1677911;83;21070;-73
2021/10/13 02:06:08;;;;;;;26.10;19.15;;;;;;;7.24;76.53;100088.30;1696992;83;21081;-73
2021/10/13 02:08:39;;;;;;;28.45;20.60;;;;;;;7.20;76.59;100097.80;1699317;83;21121;-72
2021/10/13 02:11:06;;;;;;;28.27;20.88;;;;;;;7.16;76.71;100101.20;1689939;84;20931;-73
2021/10/13 02:13:38;;;;;;;24.92;20.70;;;;;;;7.09;76.93;100102.70;1703064;83;21074;-73
2021/10/13 02:16:05;;;;;;;25.35;21.10;;;;;;;7.08;77.18;100102.43;1713286;83;20980;-74
2021/10/13 02:18:33;;;;;;;26.02;20.77;;;;;;;7.06;77.49;100089.91;1700821;82;21133;-73
2021/10/13 02:21:03;;;;;;;27.58;20.55;;;;;;;7.09;77.82;100098.72;1696252;83;21967;-73
2021/10/13 02:23:33;;;;;;;27.32;20.08;;;;;;;7.10;78.16;100095.53;1709462;83;21208;-73
2021/10/13 02:26:05;;;;;;;27.55;20.77;;;;;;;7.12;78.46;100086.80;1668019;84;21098;-74
2021/10/13 02:28:36;;;;;;;28.40;21.97;;;;;;;7.13;78.64;100086.55;1662636;86;21217;-73
2021/10/13 02:31:03;;;;;;;26.60;21.27;;;;;;;7.13;78.90;100086.55;1684380;83;21089;-73
2021/10/13 02:33:30;;;;;;;23.75;18.60;;;;;;;7.16;79.12;100091.90;1704951;83;21467;-73
2021/10/13 02:36:00;;;;;;;26.48;20.60;;;;;;;7.14;79.27;100097.47;1718049;83;21055;-74
2021/10/13 02:38:27;;;;;;;28.52;20.57;;;;;;;7.12;79.34;100099.55;1692887;83;20986;-73
2021/10/13 02:40:54;;;;;;;24.32;19.45;;;;;;;7.10;79.33;100105.63;1669184;84;21033;-73
2021/10/13 02:43:20;;;;;;;28.92;22.30;;;;;;;7.09;79.46;100101.37;1688961;83;20944;-73
2021/10/13 02:46:01;;;;;;;30.25;23.42;;;;;;;7.09;79.69;100097.92;1688201;83;21162;-73
2021/10/13 02:48:30;;;;;;;30.27;20.97;;;;;;;7.11;80.05;100099.78;1685123;83;21509;-73
2021/10/13 02:51:11;;;;;;;31.97;21.97;;;;;;;7.14;80.34;100108.09;1692680;84;21080;-72
2021/10/13 02:53:44;;;;;;;29.23;22.85;;;;;;;7.17;80.60;100112.09;1701291;83;21176;-71
2021/10/13 02:56:15;;;;;;;31.45;22.87;;;;;;;7.18;80.88;100111.06;1711835;83;21517;-73
2021/10/13 02:59:05;;;;;;;29.85;22.42;;;;;;;7.17;81.07;100112.92;1644373;85;21569;-72
2021/10/13 03:01:38;;;;;;;30.62;24.30;;;;;;;7.19;81.25;100113.46;1660348;86;21571;-72
2021/10/13 03:04:11;;;;;;;33.05;24.18;;;;;;;7.21;81.31;100118.02;1661062;86;21077;-72
2021/10/13 03:06:43;;;;;;;28.85;22.07;;;;;;;7.23;81.37;100112.44;1705398;83;21183;-73
2021/10/13 03:09:11;;;;;;;32.13;23.07;;;;;;;7.25;81.40;100124.97;1699189;84;21013;-73
2021/10/13 03:11:38;;;;;;;30.75;22.42;;;;;;;7.25;81.40;100118.33;1703713;83;21164;-72
2021/10/13 03:14:05;;;;;;;28.67;22.25;;;;;;;7.26;81.35;100119.92;1699239;82;21081;-72
2021/10/13 03:16:32;;;;;;;29.25;22.62;;;;;;;7.27;81.36;100125.50;1702966;83;21077;-72
2021/10/13 03:19:02;;;;;;;29.07;22.67;;;;;;;7.28;81.35;100133.25;1702679;82;21037;-73
2021/10/13 03:21:30;;;;;;;28.30;22.10;;;;;;;7.29;81.36;100129.53;1730154;82;21062;-73
2021/10/13 03:24:05;;;;;;;27.25;22.10;;;;;;;7.32;81.28;100128.24;1725391;83;21118;-72
2021/10/13 03:26:31;;;;;;;28.25;21.37;;;;;;;7.36;81.22;100124.56;1688767;83;21043;-73
2021/10/13 03:28:58;;;;;;;29.82;22.40;;;;;;;7.40;81.16;100118.50;1684275;85;21030;-72
2021/10/13 03:31:24;;;;;;;28.80;22.50;;;;;;;7.45;81.06;100127.88;1686247;85;21618;-73
2021/10/13 03:33:53;;;;;;;36.88;22.70;;;;;;;7.53;81.01;100127.97;1687269;83;21086;-72
2021/10/13 03:36:19;;;;;;;32.42;23.55;;;;;;;7.58;80.97;100126.72;1691580;83;21129;-74
2021/10/13 03:38:52;;;;;;;30.30;22.37;;;;;;;7.63;80.89;100117.45;1689332;83;21078;-72
2021/10/13 03:41:20;;;;;;;30.62;22.17;;;;;;;7.66;80.79;100111.64;1697413;83;21114;-73
2021/10/13 03:43:49;;;;;;;30.35;22.32;;;;;;;7.70;80.71;100120.75;1691384;83;21073;-72
2021/10/13 03:46:19;;;;;;;30.65;23.60;;;;;;;7.71;80.66;100119.69;1689403;83;22018;-73
2021/10/13 03:48:49;;;;;;;33.85;24.30;;;;;;;7.76;80.59;100120.27;1691795;83;21680;-74
2021/10/13 03:51:18;;;;;;;30.00;23.30;;;;;;;7.79;80.53;100114.98;1684265;84;21576;-74
2021/10/13 03:53:45;;;;;;;32.13;24.55;;;;;;;7.82;80.45;100117.14;1688578;83;21023;-74
2021/10/13 03:56:12;;;;;;;31.95;24.25;;;;;;;7.81;80.38;100109.70;1689304;83;21143;-74
2021/10/13 03:58:39;;;;;;;30.15;22.87;;;;;;;7.81;80.37;100115.02;1705241;83;21145;-72
2021/10/13 04:01:06;;;;;;;27.77;21.05;;;;;;;7.83;80.35;100112.92;1698846;83;21583;-73
2021/10/13 04:03:33;;;;;;;29.20;21.57;;;;;;;7.85;80.31;100116.65;1707128;83;21146;-73
2021/10/13 04:05:59;;;;;;;28.20;22.13;;;;;;;7.82;80.31;100118.47;1692498;83;21114;-73
2021/10/13 04:08:26;;;;;;;27.75;21.40;;;;;;;7.83;80.37;100117.41;1701688;83;21051;-73
2021/10/13 04:10:52;;;;;;;28.25;21.60;;;;;;;7.86;80.41;100116.39;1706378;83;21534;-73
2021/10/13 04:13:20;;;;;;;28.67;21.77;;;;;;;7.85;80.41;100115.31;1698843;83;21124;-73
2021/10/13 04:15:47;;;;;;;26.80;20.43;;;;;;;7.79;80.43;100118.44;1692532;83;21545;-73
2021/10/13 04:18:15;;;;;;;26.45;22.13;;;;;;;7.77;80.39;100128.53;1686981;83;21130;-72
2021/10/13 04:20:43;;;;;;;28.73;23.12;;;;;;;7.71;80.27;100116.23;1703595;83;21624;-73
2021/10/13 04:23:10;;;;;;;30.12;21.97;;;;;;;7.67;80.28;100113.80;1689298;83;21154;-73
2021/10/13 04:25:37;;;;;;;29.20;22.67;;;;;;;7.61;80.26;100111.60;1682347;83;21070;-73
2021/10/13 04:28:11;;;;;;;32.40;25.02;;;;;;;7.54;80.23;100114.98;1708579;83;21036;-73
2021/10/13 04:30:39;;;;;;;28.87;23.50;;;;;;;7.48;80.30;100122.08;1649905;85;21073;-74
2021/10/13 04:33:08;;;;;;;31.05;25.15;;;;;;;7.47;80.32;100124.47;1698669;83;21085;-74
2021/10/13 04:35:39;;;;;;;32.38;25.35;;;;;;;7.45;80.36;100127.88;1706971;83;21072;-74
2021/10/13 04:38:06;;;;;;;35.68;28.15;;;;;;;7.47;80.48;100127.12;1682963;84;21201;-74
2021/10/13 04:40:38;;;;;;;38.58;28.62;;;;;;;7.50;80.53;100119.16;1685427;85;21006;-73
2021/10/13 04:43:05;;;;;;;37.38;27.45;;;;;;;7.52;80.62;100133.02;1696888;83;21139;-73
2021/10/13 04:45:33;;;;;;;35.85;27.35;;;;;;;7.55;80.72;100134.38;1693214;83;21012;-73
2021/10/13 04:48:01;;;;;;;34.60;27.32;;;;;;;7.56;80.82;100136.78;1702601;83;21007;-72
2021/10/13 04:50:28;;;;;;;40.38;30.05;;;;;;;7.59;80.95;100137.61;1703276;83;21543;-73
2021/10/13 04:52:54;;;;;;;39.27;28.52;;;;;;;7.65;81.08;100139.81;1700990;83;20975;-73
2021/10/13 04:55:21;;;;;;;33.95;27.45;;;;;;;7.65;81.08;100142.47;1692567;83;21097;-73
2021/10/13 04:57:48;;;;;;;38.92;30.37;;;;;;;7.67;81.05;100148.36;1671776;84;21072;-74
2021/10/13 05:00:15;;;;;;;36.20;27.60;;;;;;;7.66;81.01;100146.20;1694773;83;21029;-74
2021/10/13 05:02:42;;;;;;;41.60;30.05;;;;;;;7.67;80.95;100147.83;1706889;83;21145;-73
2021/10/13 05:05:09;;;;;;;39.90;31.87;;;;;;;7.67;80.89;100149.16;1695652;83;21507;-74
2021/10/13 05:07:40;;;;;;;39.80;29.40;;;;;;;7.68;80.89;100154.74;1664924;84;21062;-74
2021/10/13 05:10:08;;;;;;;39.03;30.12;;;;;;;7.70;80.82;100157.97;1686503;83;21041;-73
2021/10/13 05:12:35;;;;;;;36.20;28.80;;;;;;;7.73;80.66;100154.82;1697781;82;21538;-74
2021/10/13 05:15:02;;;;;;;34.18;26.80;;;;;;;7.77;80.52;100156.45;1681857;83;21163;-74
2021/10/13 05:17:30;;;;;;;34.98;28.35;;;;;;;7.79;80.31;100165.50;1687202;83;21184;-73
2021/10/13 05:19:58;;;;;;;34.60;28.20;;;;;;;7.81;80.19;100164.73;1686811;83;21084;-74
2021/10/13 05:22:25;;;;;;;36.38;28.27;;;;;;;7.87;80.05;100168.53;1693519;83;21041;-74
2021/10/13 05:24:52;;;;;;;29.98;24.12;;;;;;;7.91;79.83;100164.84;1703661;83;21606;-74
2021/10/13 05:27:19;;;;;;;33.48;26.90;;;;;;;7.95;79.66;100161.96;1696638;83;21930;-72
2021/10/13 05:29:46;;;;;;;36.80;28.10;;;;;;;8.00;79.58;100166.02;1693934;83;21136;-72
2021/10/13 05:32:13;;;;;;;33.42;25.97;;;;;;;8.08;79.44;100166.09;1665049;84;21066;-73
2021/10/13 05:34:42;;;;;;;35.35;25.97;;;;;;;8.13;79.22;100165.63;1701005;82;21088;-74
2021/10/13 05:37:11;;;;;;;32.35;25.23;;;;;;;8.20;79.03;100176.08;1703945;82;21090;-73
2021/10/13 05:39:41;;;;;;;31.68;24.80;;;;;;;8.29;78.83;100175.08;1701293;82;22318;-73
2021/10/13 05:42:18;;;;;;;35.85;26.93;;;;;;;8.32;78.60;100168.73;1712585;83;21034;-73
2021/10/13 05:44:54;;;;;;;33.50;25.08;;;;;;;8.35;78.44;100178.88;1690999;82;21074;-74
2021/10/13 05:47:28;;;;;;;33.60;25.95;;;;;;;8.40;78.26;100180.30;1698724;82;21060;-75
2021/10/13 05:49:59;;;;;;;33.65;25.82;;;;;;;8.47;77.95;100189.41;1712524;83;21042;-74
2021/10/13 05:52:28;;;;;;;31.68;24.55;;;;;;;8.50;77.72;100194.23;1710331;82;21166;-73
2021/10/13 05:54:57;;;;;;;32.93;25.95;;;;;;;8.54;77.52;100188.67;1690333;83;21070;-72
2021/10/13 05:57:24;;;;;;;32.63;26.00;;;;;;;8.57;77.33;100187.38;1712107;82;21084;-74
2021/10/13 05:59:58;;;;;;;32.75;25.62;;;;;;;8.60;77.09;100181.02;1707663;82;21521;-73
2021/10/13 06:02:26;;;;;;;34.53;26.48;;;;;;;8.61;76.87;100177.28;1699594;82;21567;-72
2021/10/13 06:04:59;;;;;;;32.42;25.37;;;;;;;8.64;76.73;100168.80;1662295;84;21141;-74
2021/10/13 06:07:33;;;;;;;31.42;23.83;;;;;;;8.64;76.31;100172.79;1692217;84;20994;-73
2021/10/13 06:09:59;;;;;;;31.15;22.85;;;;;;;8.63;75.89;100179.17;1701122;83;21037;-74
2021/10/13 06:12:34;;;;;;;30.27;23.60;;;;;;;8.64;75.50;100186.63;1705055;83;21120;-74
2021/10/13 06:15:07;;;;;;;30.35;25.05;;;;;;;8.64;75.38;100189.30;1689721;83;21072;-74
2021/10/13 06:17:48;;;;;;;33.35;26.45;;;;;;;8.67;75.33;100182.94;1690379;83;21138;-74
2021/10/13 06:20:24;;;;;;;31.37;24.87;;;;;;;8.74;75.22;100188.58;1697243;83;21043;-75
2021/10/13 06:22:58;;;;;;;37.50;29.05;;;;;;;8.78;75.12;100181.16;1666169;84;21480;-76
2021/10/13 06:25:31;;;;;;;41.58;29.40;;;;;;;8.87;74.87;100186.83;1673363;84;21043;-75
2021/10/13 06:27:58;;;;;;;39.63;29.35;;;;;;;8.89;74.45;100184.72;1665467;84;21146;-75
2021/10/13 06:30:25;;;;;;;44.80;31.45;;;;;;;8.89;74.20;100183.39;1665695;84;21132;-73
2021/10/13 07:08:38;;;;;;;46.03;29.70;;;;;;;9.03;73.55;100211.19;1857980;75;23298;-72
2021/10/13 07:11:09;;;;;;;47.70;28.52;;;;;;;9.05;73.56;100217.58;1828751;77;21030;-71
2021/10/13 07:13:41;;;;;;;39.42;26.87;;;;;;;9.11;73.43;100216.56;1828881;77;21149;-71
2021/10/13 07:16:14;;;;;;;41.42;28.20;;;;;;;9.14;73.24;100208.06;1831270;78;21077;-72
2021/10/13 07:18:44;;;;;;;38.00;25.25;;;;;;;9.19;73.25;100207.31;1827845;78;21079;-71
2021/10/13 07:21:11;;;;;;;45.55;29.27;;;;;;;9.26;73.25;100203.36;1829358;77;21046;-71
2021/10/13 07:23:40;;;;;;;40.35;27.95;;;;;;;9.34;73.12;100206.06;1822320;77;21126;-70
2021/10/13 07:26:09;;;;;;;39.90;28.57;;;;;;;9.37;72.99;100203.69;1831687;78;21220;-73
2021/10/13 07:28:40;;;;;;;38.63;27.15;;;;;;;9.40;72.87;100203.71;1823842;78;21017;-70
2021/10/13 07:31:06;;;;;;;38.98;28.45;;;;;;;9.42;72.87;100203.47;1833338;77;21524;-71
2021/10/13 07:33:35;;;;;;;34.20;24.52;;;;;;;9.47;72.84;100197.61;1827954;77;21531;-72
2021/10/13 07:36:01;;;;;;;31.57;24.18;;;;;;;9.51;72.62;100202.73;1821068;78;21806;-72
2021/10/13 07:38:28;;;;;;;34.78;27.42;;;;;;;9.50;72.42;100197.09;1795896;78;21165;-72
2021/10/13 07:40:55;;;;;;;38.63;28.07;;;;;;;9.49;72.47;100206.17;1823554;78;21475;-71
2021/10/13 07:43:21;;;;;;;36.28;27.73;;;;;;;9.51;72.51;100202.73;1823728;78;21288;-72
2021/10/13 07:45:50;;;;;;;39.48;27.32;;;;;;;9.54;72.59;100200.88;1840859;77;21011;-70
2021/10/13 07:48:17;;;;;;;36.48;25.40;;;;;;;9.60;72.48;100197.15;1833634;78;21035;-72
2021/10/13 07:50:46;;;;;;;39.42;28.67;;;;;;;9.63;72.33;100200.63;1828334;76;21614;-71
2021/10/13 07:53:14;;;;;;;37.80;26.62;;;;;;;9.63;72.28;100197.97;1821595;78;21093;-73
2021/10/13 07:55:44;;;;;;;35.75;26.50;;;;;;;9.65;72.24;100201.73;1804980;77;21077;-72
2021/10/13 07:58:17;;;;;;;32.45;24.55;;;;;;;9.68;72.19;100203.08;1803581;78;21049;-72
2021/10/13 08:00:44;;;;;;;34.58;25.68;;;;;;;9.68;71.86;100200.41;1825940;78;21580;-72
2021/10/13 08:03:12;;;;;;;32.60;24.32;;;;;;;9.65;71.58;100199.59;1798575;78;21095;-70
2021/10/13 08:05:40;;;;;;;32.65;25.27;;;;;;;9.62;71.65;100195.58;1794356;78;21033;-70
2021/10/13 08:08:07;;;;;;;30.88;22.62;;;;;;;9.60;71.69;100201.15;1791277;79;21043;-71
2021/10/13 08:10:34;;;;;;;34.05;24.50;;;;;;;9.59;71.71;100196.09;1780430;79;21083;-72
2021/10/13 08:13:00;;;;;;;29.48;22.93;;;;;;;9.59;71.76;100191.55;1774322;80;21070;-71
2021/10/13 08:15:27;;;;;;;27.50;22.17;;;;;;;9.61;71.61;100195.31;1776525;79;21884;-70
2021/10/13 08:17:55;;;;;;;29.77;24.02;;;;;;;9.61;71.47;100188.65;1780860;79;21109;-70
2021/10/13 08:20:22;;;;;;;30.25;23.38;;;;;;;9.59;71.59;100188.89;1779008;80;21090;-71
2021/10/13 08:22:51;;;;;;;29.95;24.37;;;;;;;9.63;71.68;100190.50;1773607;80;21554;-72
2021/10/13 08:25:18;;;;;;;32.35;24.10;;;;;;;9.65;71.65;100194.26;1777488;79;21097;-71
2021/10/13 08:27:45;;;;;;;28.27;22.52;;;;;;;9.67;71.54;100196.12;1780265;79;21110;-71
2021/10/13 08:30:12;;;;;;;28.87;23.10;;;;;;;9.68;71.43;100192.41;1779955;78;21046;-72
2021/10/13 08:32:39;;;;;;;26.80;21.73;;;;;;;9.66;71.29;100199.86;1779764;79;21035;-71
2021/10/13 08:35:07;;;;;;;32.00;23.38;;;;;;;9.66;71.23;100190.52;1777577;79;21054;-72
2021/10/13 08:37:36;;;;;;;29.23;22.52;;;;;;;9.63;71.24;100187.30;1782125;79;21054;-71
2021/10/13 08:40:05;;;;;;;27.30;22.50;;;;;;;9.65;71.24;100182.27;1780374;79;21071;-71
2021/10/13 08:42:35;;;;;;;31.87;24.75;;;;;;;9.68;71.34;100184.41;1777633;80;21059;-71
2021/10/13 08:45:03;;;;;;;27.85;22.95;;;;;;;9.68;71.43;100183.08;1782560;78;21031;-73
2021/10/13 08:47:32;;;;;;;30.15;23.90;;;;;;;9.71;71.29;100190.56;1780092;79;21144;-71
2021/10/13 08:50:01;;;;;;;32.60;24.05;;;;;;;9.74;71.32;100188.17;1780236;78;21046;-71
2021/10/13 08:52:31;;;;;;;31.00;24.23;;;;;;;9.80;71.35;100194.31;1759426;80;22051;-71
2021/10/13 08:54:58;;;;;;;33.58;25.72;;;;;;;9.86;71.40;100195.94;1779135;80;21488;-71
2021/10/13 08:57:28;;;;;;;32.35;25.20;;;;;;;9.91;71.37;100196.51;1776004;78;21070;-71
2021/10/13 08:59:55;;;;;;;33.23;25.23;;;;;;;9.94;71.38;100200.79;1779531;80;21030;-71
2021/10/13 09:02:44;;;;;;;35.83;26.35;;;;;;;9.96;71.50;100200.52;1777633;79;21031;-71
2021/10/13 09:05:17;;;;;;;30.92;23.77;;;;;;;9.97;71.59;100200.27;1780606;80;21496;-71
2021/10/13 09:07:49;;;;;;;33.48;24.72;;;;;;;9.97;71.57;100204.78;1773540;80;21509;-71
2021/10/13 09:10:38;;;;;;;31.15;25.77;;;;;;;9.98;71.70;100211.20;1775576;79;21054;-73
2021/10/13 09:13:16;;;;;;;32.67;25.50;;;;;;;10.00;71.81;100214.42;1779081;78;21048;-71
2021/10/13 09:15:52;;;;;;;33.10;24.82;;;;;;;10.02;71.82;100218.15;1777535;78;21647;-71
2021/10/13 09:18:26;;;;;;;31.37;25.77;;;;;;;10.02;71.89;100212.81;1779302;80;21235;-73
2021/10/13 09:20:52;;;;;;;32.67;25.55;;;;;;;10.02;71.83;100215.48;1779856;80;21073;-71
2021/10/13 09:23:30;;;;;;;30.82;25.68;;;;;;;9.99;71.93;100208.80;1777234;78;21039;-71
2021/10/13 09:26:09;;;;;;;31.48;25.85;;;;;;;10.02;71.95;100222.95;1781147;80;20991;-70
2021/10/13 09:28:36;;;;;;;31.62;25.00;;;;;;;9.99;71.94;100210.13;1778450;79;21058;-70
2021/10/13 09:31:14;;;;;;;29.55;24.07;;;;;;;9.99;72.03;100216.80;1756742;80;21110;-70
2021/10/13 09:33:59;;;;;;;33.77;26.17;;;;;;;9.99;71.85;100216.00;1772887;78;21259;-71
2021/10/13 09:36:40;;;;;;;30.40;24.87;;;;;;;9.98;71.70;100215.20;1779616;79;21701;-71
2021/10/13 09:39:15;;;;;;;27.25;21.93;;;;;;;9.96;71.36;100211.98;1779926;79;21535;-70
2021/10/13 09:42:09;;;;;;;30.68;23.32;;;;;;;9.95;71.31;100214.92;1778971;79;21023;-70
2021/10/13 09:44:45;;;;;;;28.87;22.05;;;;;;;9.96;71.42;100215.19;1775748;79;21194;-72
2021/10/13 09:47:13;;;;;;;28.00;22.67;;;;;;;9.95;71.30;100218.39;1752817;79;21114;-71
2021/10/13 09:49:43;;;;;;;27.80;22.10;;;;;;;9.93;71.12;100214.38;1771838;80;21028;-70
2021/10/13 09:52:20;;;;;;;28.90;23.85;;;;;;;9.90;71.11;100218.36;1774907;80;21030;-71
2021/10/13 09:54:58;;;;;;;27.77;22.95;;;;;;;9.86;71.14;100214.61;1774264;79;21301;-72
2021/10/13 09:57:32;;;;;;;31.07;23.15;;;;;;;9.86;71.16;100215.41;1777474;79;21132;-72
2021/10/13 10:00:16;;;;;;;33.13;24.60;;;;;;;9.87;71.11;100212.20;1775266;79;21076;-71
2021/10/13 10:02:52;;;;;;;26.75;20.90;;;;;;;9.86;71.04;100222.62;1772494;80;21564;-71
2021/10/13 10:05:34;;;;;;;31.60;22.95;;;;;;;9.86;71.15;100214.08;1776003;79;21165;-71
2021/10/13 10:08:09;;;;;;;31.15;23.87;;;;;;;9.87;71.19;100213.55;1780417;78;21062;-71
2021/10/13 10:11:03;;;;;;;33.40;24.52;;;;;;;9.86;71.08;100210.61;1781223;80;21124;-70
2021/10/13 10:13:40;;;;;;;31.33;23.85;;;;;;;9.86;71.07;100209.28;1781542;79;21011;-71
2021/10/13 10:16:12;;;;;;;31.33;24.52;;;;;;;9.86;71.05;100207.41;1779555;78;21031;-71
2021/10/13 10:18:42;;;;;;;32.03;24.10;;;;;;;9.86;71.08;100211.41;1780665;80;21365;-71
2021/10/13 10:21:27;;;;;;;32.65;24.63;;;;;;;9.88;71.09;100211.16;1773975;79;21068;-73
2021/10/13 10:24:01;;;;;;;30.85;23.73;;;;;;;9.88;70.96;100213.83;1778217;79;21514;-70
2021/10/13 10:26:31;;;;;;;30.40;24.30;;;;;;;9.89;70.96;100213.30;1776957;80;21085;-70
2021/10/13 10:29:01;;;;;;;32.93;24.15;;;;;;;9.88;70.92;100213.83;1780545;79;21535;-69
2021/10/13 10:31:35;;;;;;;30.80;23.80;;;;;;;9.87;70.84;100217.55;1779638;78;20956;-70
2021/10/13 10:34:08;;;;;;;33.78;23.47;;;;;;;9.86;70.84;100219.95;1772622;80;21097;-71
2021/10/13 10:36:48;;;;;;;32.75;23.30;;;;;;;9.85;70.85;100218.35;1780700;80;21080;-71
2021/10/13 10:39:19;;;;;;;28.32;22.75;;;;;;;9.86;70.79;100219.95;1774557;80;21039;-71
2021/10/13 10:41:52;;;;;;;27.67;22.02;;;;;;;9.89;70.81;100221.30;1779761;78;21632;-72
2021/10/13 10:44:46;;;;;;;25.97;21.62;;;;;;;9.92;70.80;100220.25;1781794;79;21079;-70
2021/10/13 10:47:20;;;;;;;28.67;21.93;;;;;;;9.96;70.67;100215.19;1763947;78;21506;-70
2021/10/13 10:50:00;;;;;;;30.52;21.73;;;;;;;9.96;70.57;100209.31;1777523;78;21841;-70
2021/10/13 10:53:14;;;;;;;28.02;22.07;;;;;;;10.01;70.52;100216.55;1778197;78;21072;-71
2021/10/13 10:55:47;;;;;;;30.12;23.25;;;;;;;10.04;70.48;100214.16;1765516;79;21091;-71
2021/10/13 10:58:36;;;;;;;31.10;23.47;;;;;;;10.07;70.30;100215.52;1781963;78;21083;-70
2021/10/13 11:01:26;;;;;;;31.75;23.73;;;;;;;10.07;70.11;100209.64;1776727;78;21015;-72
2021/10/13 11:04:11;;;;;;;30.08;22.45;;;;;;;10.08;70.06;100212.57;1771118;80;21163;-72
2021/10/13 11:06:48;;;;;;;32.48;24.12;;;;;;;10.11;70.09;100220.59;1772591;79;21206;-70
2021/10/13 11:09:30;;;;;;;30.48;23.50;;;;;;;10.13;70.09;100212.31;1774964;79;21106;-72
2021/10/13 11:12:04;;;;;;;33.37;23.23;;;;;;;10.16;69.98;100214.45;1773730;79;21712;-71
2021/10/13 11:14:48;;;;;;;30.37;22.95;;;;;;;10.16;70.02;100215.80;1779699;79;21399;-70
2021/10/13 11:17:33;;;;;;;30.45;23.20;;;;;;;10.18;70.12;100213.67;1774513;79;21626;-70
2021/10/13 11:20:14;;;;;;;33.40;23.77;;;;;;;10.19;70.20;100205.39;1773783;80;21117;-72
2021/10/13 11:22:47;;;;;;;33.85;25.45;;;;;;;10.20;70.25;100213.69;1775202;79;21601;-71
2021/10/13 11:25:22;;;;;;;35.20;24.77;;;;;;;10.19;70.29;100209.93;1773556;80;21558;-70
2021/10/13 11:28:06;;;;;;;30.35;23.47;;;;;;;10.18;70.27;100208.34;1777066;79;21043;-70
2021/10/13 11:30:43;;;;;;;29.12;21.48;;;;;;;10.17;70.12;100212.05;1775553;80;21853;-70
2021/10/13 11:33:13;;;;;;;33.58;22.85;;;;;;;10.15;70.16;100209.66;1774139;79;21165;-71
2021/10/13 11:35:44;;;;;;;32.67;23.40;;;;;;;10.15;70.22;100200.31;1782939;78;21074;-72
2021/10/13 11:38:21;;;;;;;36.42;24.63;;;;;;;10.17;69.90;100209.38;1780051;80;21387;-70
2021/10/13 11:40:49;;;;;;;34.27;22.90;;;;;;;10.14;69.43;100213.94;1776051;79;21039;-71
2021/10/13 11:43:26;;;;;;;34.00;23.52;;;;;;;10.13;69.32;100212.31;1780396;80;21185;-72
2021/10/13 11:45:54;;;;;;;31.35;23.02;;;;;;;10.12;69.26;100208.05;1776248;78;21030;-72
2021/10/13 11:48:41;;;;;;;32.83;22.95;;;;;;;10.12;69.17;100214.72;1779357;78;21050;-72
2021/10/13 11:51:21;;;;;;;30.20;22.15;;;;;;;10.08;69.33;100205.90;1776148;80;21074;-72
2021/10/13 11:54:01;;;;;;;34.58;23.80;;;;;;;10.10;69.35;100207.78;1777412;79;21561;-72
2021/10/13 12:07:23;;;;;;;32.78;22.02;;;;;;;10.25;69.12;100203.55;1763763;79;21155;-71
2021/10/13 12:10:01;;;;;;;30.23;21.30;;;;;;;10.29;69.11;100205.98;1758816;79;21301;-71
2021/10/13 12:12:29;;;;;;;33.40;20.23;;;;;;;10.29;68.69;100207.31;1767044;79;21081;-71
2021/10/13 12:14:56;;;;;;;30.43;20.75;;;;;;;10.30;68.68;100203.06;1770155;79;21061;-71
2021/10/13 12:17:31;;;;;;;24.00;18.50;;;;;;;10.31;68.82;100195.86;1762769;80;21113;-71
2021/10/13 12:20:00;;;;;;;29.67;19.32;;;;;;;10.32;68.57;100204.13;1732978;81;21252;-73
2021/10/13 12:22:27;;;;;;;24.55;18.23;;;;;;;10.31;68.16;100200.66;1725806;81;21023;-72
2021/10/13 12:24:55;;;;;;;23.47;16.80;;;;;;;10.29;67.97;100208.11;1731593;81;21094;-72
2021/10/13 12:27:29;;;;;;;22.20;17.02;;;;;;;10.25;67.76;100193.67;1742401;79;21572;-72